Time;durP1;ratioP1;P1;durP2;ratioP2;P2;SDS_P1;SDS_P2;PMS_P1;PMS_P2;Temp;Humidity;BMP_temperature;BMP_pressure;BME280_temperature;BME280_humidity;BME280_pressure;Samples;Min_cycle;Max_cycle;Signal;HPM_P1;HPM_P2
2022/09/12 00:02:25;;;;;;;9.13;8.23;;;16.10;99.90;;;;;;5007046;28;20052;-73
2022/09/12 00:04:51;;;;;;;10.20;8.90;;;16.00;99.90;;;;;;5004082;28;20045;-70
2022/09/12 00:07:17;;;;;;;9.95;7.78;;;16.00;99.90;;;;;;5003625;28;20644;-71
2022/09/12 00:09:43;;;;;;;10.60;8.68;;;15.90;99.90;;;;;;5024527;28;20467;-70
2022/09/12 00:12:09;;;;;;;10.38;8.48;;;15.90;99.90;;;;;;5016610;28;20053;-70
2022/09/12 00:14:35;;;;;;;8.50;7.07;;;15.90;99.90;;;;;;5006454;28;20487;-74
2022/09/12 00:17:01;;;;;;;8.43;7.40;;;15.80;99.90;;;;;;5019708;28;20528;-75
2022/09/12 00:19:27;;;;;;;7.65;6.88;;;15.80;99.90;;;;;;5021798;28;20037;-75
2022/09/12 00:21:54;;;;;;;8.45;7.57;;;15.70;99.90;;;;;;5031875;28;20055;-70
2022/09/12 00:24:20;;;;;;;8.23;7.40;;;15.70;99.90;;;;;;5048728;28;20063;-73
2022/09/12 00:26:46;;;;;;;8.02;7.22;;;15.70;99.90;;;;;;5020761;28;20179;-72
2022/09/12 00:29:17;;;;;;;10.77;9.23;;;15.70;99.90;;;;;;5014720;28;20053;-73
2022/09/12 00:31:44;;;;;;;13.40;9.88;;;15.70;99.90;;;;;;5038195;28;20391;-74
2022/09/12 00:34:10;;;;;;;11.00;9.93;;;15.60;99.90;;;;;;5034973;28;20056;-74
2022/09/12 00:36:37;;;;;;;10.45;9.45;;;15.60;99.90;;;;;;5004208;28;20041;-74
2022/09/12 00:39:03;;;;;;;9.77;8.77;;;15.60;99.90;;;;;;5006940;28;20099;-74
2022/09/12 00:41:35;;;;;;;10.23;8.38;;;15.60;99.90;;;;;;5018358;28;20052;-74
2022/09/12 00:44:09;;;;;;;12.65;9.98;;;15.60;99.90;;;;;;5016164;28;20044;-74
2022/09/12 00:47:03;;;;;;;11.57;9.68;;;15.50;99.90;;;;;;5001792;28;20080;-72
2022/09/12 00:49:38;;;;;;;14.02;11.73;;;15.50;99.90;;;;;;5028718;28;20476;-74
2022/09/12 00:52:18;;;;;;;12.82;11.52;;;15.50;99.90;;;;;;5033578;28;20589;-74
2022/09/12 00:55:05;;;;;;;14.52;12.10;;;15.50;99.90;;;;;;5028215;28;20199;-72
2022/09/12 00:57:35;;;;;;;13.43;12.10;;;15.40;99.90;;;;;;5039088;28;20045;-74
2022/09/12 01:00:14;;;;;;;14.45;12.45;;;15.40;99.90;;;;;;5018283;28;20456;-74
2022/09/12 01:02:55;;;;;;;14.32;12.27;;;15.40;99.90;;;;;;5014504;28;20053;-74
2022/09/12 01:05:23;;;;;;;16.75;13.10;;;15.40;99.90;;;;;;5030833;28;20803;-70
2022/09/12 01:07:50;;;;;;;12.60;11.40;;;15.40;99.90;;;;;;5020067;28;20048;-74
2022/09/12 01:10:18;;;;;;;13.43;11.30;;;15.40;99.90;;;;;;5031779;28;20049;-74
2022/09/12 01:12:45;;;;;;;14.77;13.13;;;15.40;99.90;;;;;;5035179;28;20813;-73
2022/09/12 01:15:11;;;;;;;13.82;12.35;;;15.30;99.90;;;;;;5000559;28;20679;-75
2022/09/12 01:18:03;;;;;;;14.90;13.35;;;15.30;99.90;;;;;;5018052;28;20526;-73
2022/09/12 01:20:32;;;;;;;14.02;12.57;;;15.30;99.90;;;;;;4991855;28;20068;-74
2022/09/12 01:23:36;;;;;;;15.77;14.00;;;15.30;99.90;;;;;;5029102;28;20056;-72
2022/09/12 01:26:39;;;;;;;15.52;13.90;;;15.30;99.90;;;;;;4946392;28;20515;-74
2022/09/12 01:29:23;;;;;;;14.50;12.98;;;15.30;99.90;;;;;;4976252;28;20159;-74
2022/09/12 01:31:55;;;;;;;14.70;13.23;;;15.30;99.90;;;;;;5025763;28;20139;-73
2022/09/12 01:34:39;;;;;;;14.30;12.80;;;15.30;99.90;;;;;;5037462;28;20045;-70
2022/09/12 01:37:11;;;;;;;16.45;13.60;;;15.20;99.90;;;;;;5037523;28;20052;-74
2022/09/12 01:39:49;;;;;;;16.60;13.65;;;15.20;99.90;;;;;;5038968;28;20098;-72
2022/09/12 01:42:27;;;;;;;15.18;13.57;;;15.20;99.90;;;;;;5009893;28;20052;-68
2022/09/12 01:45:17;;;;;;;16.48;14.55;;;15.20;99.90;;;;;;5020727;28;20049;-73
2022/09/12 01:47:50;;;;;;;16.60;14.13;;;15.20;99.90;;;;;;5030291;28;20072;-72
2022/09/12 01:50:17;;;;;;;;;;;15.20;99.90;;;;;;5037401;28;20068;-69
2022/09/12 01:52:49;;;;;;;15.05;12.88;;;15.20;99.90;;;;;;5026192;28;19982;-68
2022/09/12 01:55:27;;;;;;;15.52;13.75;;;15.10;99.90;;;;;;5037565;28;20897;-72
2022/09/12 01:58:20;;;;;;;16.77;13.90;;;15.10;99.90;;;;;;5017225;28;20044;-69
2022/09/12 02:01:03;;;;;;;14.68;12.63;;;15.10;99.90;;;;;;5026992;28;20509;-72
2022/09/12 02:04:11;;;;;;;15.68;13.70;;;15.10;99.90;;;;;;5032348;28;20422;-73
2022/09/12 02:06:54;;;;;;;16.55;14.85;;;15.10;99.90;;;;;;5027195;28;20598;-72
2022/09/12 02:09:25;;;;;;;;;;;15.00;99.90;;;;;;5034830;28;20378;-73
2022/09/12 02:11:56;;;;;;;15.68;13.93;;;15.00;99.90;;;;;;5013269;28;20318;-71
2022/09/12 02:14:26;;;;;;;16.95;15.15;;;15.00;99.90;;;;;;5017393;28;20048;-72
2022/09/12 02:17:07;;;;;;;17.70;15.80;;;15.00;99.90;;;;;;5035223;28;20048;-73
2022/09/12 02:19:40;;;;;;;17.52;15.30;;;15.00;99.90;;;;;;5017432;28;20080;-72
2022/09/12 02:22:08;;;;;;;;;;;14.90;99.90;;;;;;5031016;28;20053;-73
2022/09/12 02:24:38;;;;;;;16.77;15.07;;;14.90;99.90;;;;;;5037207;28;19978;-72
2022/09/12 02:27:17;;;;;;;17.38;15.68;;;14.90;99.90;;;;;;5031930;28;20468;-70
2022/09/12 02:29:44;;;;;;;16.35;14.65;;;14.90;99.90;;;;;;5036229;28;20457;-70
2022/09/12 02:32:35;;;;;;;17.30;15.50;;;14.90;99.90;;;;;;4998181;28;20107;-72
2022/09/12 02:35:30;;;;;;;16.92;14.98;;;14.90;99.90;;;;;;5035189;28;20076;-73
2022/09/12 02:38:02;;;;;;;16.67;14.52;;;14.80;99.90;;;;;;5023900;28;20515;-71
2022/09/12 02:40:29;;;;;;;20.95;15.27;;;14.80;99.90;;;;;;4999309;28;20041;-72
2022/09/12 02:42:55;;;;;;;14.35;12.95;;;14.80;99.90;;;;;;4998202;28;20606;-72
2022/09/12 02:45:22;;;;;;;16.15;13.45;;;14.70;99.90;;;;;;5032536;28;20064;-69
2022/09/12 02:48:14;;;;;;;14.25;12.52;;;14.70;99.90;;;;;;5014604;28;20049;-69
2022/09/12 02:50:41;;;;;;;17.23;14.40;;;14.70;99.90;;;;;;5035646;28;20053;-70
2022/09/12 02:53:08;;;;;;;17.42;15.60;;;14.70;99.90;;;;;;5035746;28;20170;-73
2022/09/12 02:55:37;;;;;;;18.08;16.17;;;14.60;99.90;;;;;;5005470;28;20040;-73
2022/09/12 02:58:06;;;;;;;20.13;17.58;;;14.60;99.90;;;;;;5029298;28;20079;-73
2022/09/12 03:00:41;;;;;;;17.60;15.73;;;14.60;99.90;;;;;;5032249;28;20099;-68
2022/09/12 03:03:25;;;;;;;20.70;18.33;;;14.60;99.90;;;;;;5029036;28;20497;-72
2022/09/12 03:05:57;;;;;;;22.92;17.20;;;14.60;99.90;;;;;;5001751;28;20098;-71
2022/09/12 03:08:48;;;;;;;17.67;15.88;;;14.60;99.90;;;;;;4997713;28;20052;-72
2022/09/12 03:11:30;;;;;;;20.67;17.35;;;14.60;99.90;;;;;;5035516;28;20063;-70
2022/09/12 03:14:30;;;;;;;20.45;17.77;;;14.60;99.90;;;;;;5035870;28;20072;-73
2022/09/12 03:17:16;;;;;;;24.38;18.35;;;14.60;99.90;;;;;;5031447;28;20110;-71
2022/09/12 03:20:05;;;;;;;17.85;16.02;;;14.50;99.90;;;;;;5040058;28;20073;-70
2022/09/12 03:23:01;;;;;;;21.33;18.35;;;14.50;99.90;;;;;;5006145;28;20105;-72
2022/09/12 03:25:40;;;;;;;24.75;19.23;;;14.50;99.90;;;;;;5039819;28;20052;-68
2022/09/12 03:28:13;;;;;;;25.25;20.13;;;14.50;99.90;;;;;;5036638;28;20130;-73
2022/09/12 03:30:41;;;;;;;25.95;20.35;;;14.50;99.90;;;;;;5037996;28;20048;-73
2022/09/12 03:33:14;;;;;;;24.48;21.08;;;14.50;99.90;;;;;;5012864;28;20060;-73
2022/09/12 03:35:41;;;;;;;24.45;21.45;;;14.50;99.90;;;;;;5038793;28;20060;-70
2022/09/12 03:38:07;;;;;;;28.92;20.73;;;14.50;99.90;;;;;;5021532;28;20049;-72
2022/09/12 03:40:34;;;;;;;23.60;19.42;;;14.50;99.90;;;;;;5005823;28;20117;-72
2022/09/12 03:43:00;;;;;;;28.30;21.63;;;14.50;99.90;;;;;;5034641;28;20053;-73
2022/09/12 03:45:25;;;;;;;27.27;21.48;;;14.50;99.90;;;;;;5005211;28;20049;-73
2022/09/12 03:47:51;;;;;;;23.73;21.05;;;14.50;99.90;;;;;;5022425;28;20055;-73
2022/09/12 03:50:17;;;;;;;27.08;22.17;;;14.50;99.90;;;;;;5007408;28;20110;-73
2022/09/12 03:52:43;;;;;;;25.67;20.42;;;14.50;99.90;;;;;;5038533;28;20053;-73
2022/09/12 03:55:09;;;;;;;27.17;20.67;;;14.50;99.90;;;;;;4988891;28;20586;-72
2022/09/12 03:57:35;;;;;;;25.67;21.10;;;14.40;99.90;;;;;;5013234;28;26100;-69
2022/09/12 04:00:02;;;;;;;28.90;21.23;;;14.40;99.90;;;;;;5020138;28;20083;-70
2022/09/12 04:02:28;;;;;;;24.80;20.00;;;14.40;99.90;;;;;;4985501;28;26391;-71
2022/09/12 04:04:54;;;;;;;24.70;19.88;;;14.40;99.90;;;;;;5023086;28;20049;-70
2022/09/12 04:07:19;;;;;;;25.15;21.10;;;14.40;99.90;;;;;;5052846;28;20055;-71
2022/09/12 04:09:45;;;;;;;27.05;20.45;;;14.40;99.90;;;;;;5021280;28;20126;-71
2022/09/12 04:12:12;;;;;;;22.83;19.38;;;14.40;99.90;;;;;;5019514;28;20056;-73
2022/09/12 04:14:39;;;;;;;26.08;20.58;;;14.30;99.90;;;;;;5035725;28;20131;-69
2022/09/12 04:17:04;;;;;;;23.02;18.92;;;14.30;99.90;;;;;;5017735;28;20076;-73
2022/09/12 04:19:30;;;;;;;24.90;20.83;;;14.30;99.90;;;;;;5039260;28;20686;-67
2022/09/12 04:21:56;;;;;;;24.85;20.52;;;14.30;99.90;;;;;;5017656;28;20045;-69
2022/09/12 04:24:22;;;;;;;26.00;21.08;;;14.30;99.90;;;;;;5015894;28;20048;-73
2022/09/12 04:26:48;;;;;;;24.17;20.55;;;14.20;99.90;;;;;;5032151;28;20055;-71
2022/09/12 04:29:14;;;;;;;29.02;21.25;;;14.20;99.90;;;;;;5006097;28;20049;-72
2022/09/12 04:31:40;;;;;;;28.17;20.88;;;14.20;99.90;;;;;;5017641;28;20554;-68
2022/09/12 04:34:06;;;;;;;26.02;21.35;;;14.20;99.90;;;;;;5035867;28;20161;-72
2022/09/12 04:36:33;;;;;;;26.00;21.25;;;14.20;99.90;;;;;;5005483;28;20080;-69
2022/09/12 04:39:00;;;;;;;27.83;21.85;;;14.20;99.90;;;;;;5037487;28;20080;-73
2022/09/12 04:41:32;;;;;;;28.90;22.08;;;14.20;99.90;;;;;;5015108;28;20068;-73
2022/09/12 04:44:01;;;;;;;29.73;22.63;;;14.20;99.90;;;;;;5033915;28;20051;-69
2022/09/12 04:46:28;;;;;;;28.05;22.42;;;14.20;99.90;;;;;;5020190;28;20072;-72
2022/09/12 04:48:54;;;;;;;27.95;22.02;;;14.20;99.90;;;;;;5031395;28;20095;-72
2022/09/12 04:51:32;;;;;;;29.20;23.48;;;14.20;99.90;;;;;;5035189;28;20086;-70
2022/09/12 04:54:01;;;;;;;30.50;23.42;;;14.20;99.90;;;;;;5019105;28;20069;-73
2022/09/12 04:56:28;;;;;;;32.20;24.00;;;14.20;99.90;;;;;;5019549;28;20045;-69
2022/09/12 04:59:00;;;;;;;29.67;22.92;;;14.30;99.90;;;;;;5021264;28;20806;-74
2022/09/12 05:01:27;;;;;;;32.58;23.60;;;14.30;99.90;;;;;;5022914;28;20491;-73
2022/09/12 05:03:54;;;;;;;32.50;24.65;;;14.30;99.90;;;;;;5017595;28;20041;-73
2022/09/12 05:06:23;;;;;;;32.33;24.33;;;14.30;99.90;;;;;;5006416;28;20767;-73
2022/09/12 05:08:50;;;;;;;30.60;23.10;;;14.40;99.90;;;;;;5006972;28;20356;-73
2022/09/12 05:11:19;;;;;;;31.83;23.33;;;14.40;99.90;;;;;;5033946;28;20494;-73
2022/09/12 05:13:45;;;;;;;30.00;23.98;;;14.40;99.90;;;;;;5031724;28;20037;-69
2022/09/12 05:16:16;;;;;;;31.35;23.30;;;14.40;99.90;;;;;;5034881;28;20131;-73
2022/09/12 05:18:43;;;;;;;29.33;23.70;;;14.50;99.90;;;;;;5033666;28;20037;-72
2022/09/12 05:21:12;;;;;;;30.70;24.23;;;14.50;99.90;;;;;;5004988;28;20553;-72
2022/09/12 05:23:38;;;;;;;30.23;24.25;;;14.50;99.90;;;;;;5028520;28;20189;-74
2022/09/12 05:26:05;;;;;;;29.40;23.40;;;14.50;99.90;;;;;;5015800;28;20048;-73
2022/09/12 05:28:37;;;;;;;29.67;23.23;;;14.50;99.90;;;;;;5013916;28;20052;-73
2022/09/12 05:31:09;;;;;;;33.10;23.52;;;14.50;99.90;;;;;;5019414;28;20118;-74
2022/09/12 05:33:37;;;;;;;39.40;23.20;;;14.60;99.90;;;;;;5031878;28;20057;-73
2022/09/12 05:36:05;;;;;;;31.35;22.63;;;14.60;99.90;;;;;;5001496;28;20040;-74
2022/09/12 05:38:34;;;;;;;30.48;23.58;;;14.60;99.90;;;;;;5031805;28;20049;-71
2022/09/12 05:41:07;;;;;;;33.40;23.30;;;14.60;99.90;;;;;;5018319;28;20044;-69
2022/09/12 05:43:33;;;;;;;35.95;24.40;;;14.60;99.90;;;;;;5014960;28;20510;-73
2022/09/12 05:46:11;;;;;;;36.90;23.83;;;14.60;99.90;;;;;;4981908;28;20056;-73
2022/09/12 05:48:39;;;;;;;32.75;23.10;;;14.60;99.90;;;;;;5004348;28;20544;-72
2022/09/12 05:51:08;;;;;;;29.85;22.92;;;14.60;99.90;;;;;;5034743;28;20577;-72
2022/09/12 05:53:36;;;;;;;34.42;23.23;;;14.60;99.90;;;;;;5009667;28;20060;-73
2022/09/12 05:56:11;;;;;;;30.70;23.55;;;14.60;99.90;;;;;;5035424;28;20143;-73
2022/09/12 05:58:41;;;;;;;29.42;22.98;;;14.70;99.90;;;;;;5036876;28;20052;-73
2022/09/12 06:01:17;;;;;;;34.28;24.00;;;14.70;99.90;;;;;;5036544;28;20052;-72
2022/09/12 06:03:46;;;;;;;32.08;24.02;;;14.70;99.90;;;;;;5012975;28;20123;-72
2022/09/12 06:06:13;;;;;;;29.33;22.48;;;14.70;99.90;;;;;;5028329;28;20137;-72
2022/09/12 06:08:41;;;;;;;30.95;23.10;;;14.70;99.90;;;;;;5006303;28;20674;-67
2022/09/12 06:11:10;;;;;;;33.70;23.98;;;14.70;99.90;;;;;;5025231;28;20102;-73
2022/09/12 06:13:38;;;;;;;28.65;21.50;;;14.80;99.90;;;;;;5028724;28;20053;-59
2022/09/12 06:16:13;;;;;;;28.88;23.13;;;14.80;99.90;;;;;;5050266;28;20045;-58
2022/09/12 06:18:40;;;;;;;29.65;22.67;;;14.80;99.90;;;;;;5052912;28;20234;-59
2022/09/12 06:21:08;;;;;;;33.63;23.40;;;14.90;99.90;;;;;;5039409;28;20430;-59
2022/09/12 06:23:34;;;;;;;31.92;22.73;;;14.90;99.90;;;;;;5027980;28;20052;-58
2022/09/12 06:26:01;;;;;;;30.02;23.52;;;14.90;99.90;;;;;;5027163;28;20091;-59
2022/09/12 06:28:27;;;;;;;35.90;24.83;;;15.00;99.90;;;;;;5055958;28;20056;-58
2022/09/12 06:30:53;;;;;;;37.20;25.00;;;15.00;99.90;;;;;;5039359;28;20386;-59
2022/09/12 06:33:19;;;;;;;34.92;25.38;;;15.00;99.90;;;;;;5039475;28;20052;-59
2022/09/12 06:35:45;;;;;;;36.20;25.80;;;15.00;99.90;;;;;;5037661;28;20045;-57
2022/09/12 06:38:11;;;;;;;39.78;26.88;;;15.10;99.90;;;;;;5041471;28;20392;-59
2022/09/12 06:40:43;;;;;;;39.33;27.10;;;15.10;99.90;;;;;;5037200;28;20048;-58
2022/09/12 06:43:12;;;;;;;38.38;27.02;;;15.10;99.90;;;;;;5039207;28;20055;-59
2022/09/12 06:45:38;;;;;;;36.08;26.73;;;15.10;99.90;;;;;;5039109;28;20053;-59
2022/09/12 06:48:04;;;;;;;40.33;26.50;;;15.10;99.90;;;;;;5043706;28;20122;-59
2022/09/12 06:50:30;;;;;;;40.50;27.42;;;15.20;99.90;;;;;;5043913;28;20916;-59
2022/09/12 06:52:56;;;;;;;37.72;27.63;;;15.20;99.90;;;;;;5045709;28;20056;-58
2022/09/12 06:55:23;;;;;;;36.05;27.23;;;15.20;99.90;;;;;;5044284;28;20033;-59
2022/09/12 06:57:49;;;;;;;39.33;28.38;;;15.20;99.90;;;;;;5044792;28;20151;-58
2022/09/12 07:00:15;;;;;;;40.28;28.13;;;15.20;99.90;;;;;;5044977;28;20037;-59
2022/09/12 07:02:41;;;;;;;40.33;27.55;;;15.30;99.90;;;;;;5039305;28;20048;-58
2022/09/12 07:05:08;;;;;;;41.83;28.13;;;15.30;99.90;;;;;;5043800;28;20117;-59
2022/09/12 07:07:34;;;;;;;42.85;29.10;;;15.30;99.90;;;;;;5031478;28;20049;-59
2022/09/12 07:10:01;;;;;;;44.50;28.05;;;15.40;99.90;;;;;;5045094;28;20051;-59
2022/09/12 07:12:28;;;;;;;46.13;28.70;;;15.40;99.90;;;;;;5041108;28;20045;-59
2022/09/12 07:14:54;;;;;;;43.70;29.02;;;15.50;99.90;;;;;;5045574;28;20119;-59
2022/09/12 07:17:20;;;;;;;40.60;28.35;;;15.50;99.90;;;;;;5043783;28;20428;-60
2022/09/12 07:19:46;;;;;;;46.20;29.48;;;15.50;99.90;;;;;;5043397;28;20167;-58
2022/09/12 07:22:12;;;;;;;45.80;30.27;;;15.60;99.90;;;;;;5045063;28;20044;-58
2022/09/12 07:24:38;;;;;;;44.40;30.17;;;15.60;99.90;;;;;;5045084;28;20098;-59
2022/09/12 07:27:04;;;;;;;46.15;29.80;;;15.70;99.90;;;;;;5041166;28;20123;-58
2022/09/12 07:29:30;;;;;;;46.03;30.85;;;15.80;99.90;;;;;;5044620;28;20124;-58
2022/09/12 07:31:56;;;;;;;50.13;30.65;;;15.80;99.90;;;;;;5044855;28;20049;-59
2022/09/12 07:34:22;;;;;;;46.67;31.33;;;15.90;99.90;;;;;;5026165;28;20040;-58
2022/09/12 07:36:47;;;;;;;49.10;32.47;;;15.90;99.90;;;;;;5026078;28;20049;-59
2022/09/12 07:39:13;;;;;;;48.95;31.77;;;16.00;99.90;;;;;;5043084;28;20037;-59
2022/09/12 07:41:39;;;;;;;50.08;33.53;;;16.00;99.90;;;;;;5043068;28;20033;-59
2022/09/12 07:44:08;;;;;;;55.30;33.72;;;16.10;99.90;;;;;;5044342;28;20044;-59
2022/09/12 07:46:34;;;;;;;53.88;34.53;;;16.10;99.90;;;;;;5041883;28;20074;-59
2022/09/12 07:49:00;;;;;;;53.33;34.25;;;16.20;99.90;;;;;;5042948;28;20061;-58
2022/09/12 07:51:28;;;;;;;52.97;32.78;;;16.20;99.90;;;;;;5043030;28;20040;-59
2022/09/12 07:53:55;;;;;;;52.38;33.25;;;16.30;99.90;;;;;;5044207;28;20406;-59
2022/09/12 07:56:21;;;;;;;52.97;35.63;;;16.30;99.90;;;;;;5044084;28;20083;-59
2022/09/12 07:58:47;;;;;;;54.17;33.55;;;16.40;99.90;;;;;;5042585;28;20044;-59
2022/09/12 08:01:16;;;;;;;54.22;34.70;;;16.40;99.90;;;;;;5043911;28;20059;-59
2022/09/12 08:03:44;;;;;;;55.83;35.25;;;16.40;99.90;;;;;;5042422;28;20048;-59
2022/09/12 08:06:15;;;;;;;55.08;35.47;;;16.50;99.90;;;;;;5041101;28;20049;-59
2022/09/12 08:08:42;;;;;;;57.38;35.78;;;16.50;99.90;;;;;;5041564;28;20056;-58
2022/09/12 08:11:11;;;;;;;56.00;34.30;;;16.60;99.90;;;;;;5045607;28;20122;-59
2022/09/12 08:13:38;;;;;;;54.97;35.35;;;16.60;99.90;;;;;;5043590;28;20094;-58
2022/09/12 08:16:07;;;;;;;54.33;34.70;;;16.60;99.90;;;;;;5042030;28;21055;-58
2022/09/12 08:18:35;;;;;;;55.30;34.42;;;16.70;99.90;;;;;;5041849;28;20086;-58
2022/09/12 08:21:07;;;;;;;56.55;34.28;;;16.70;99.90;;;;;;5043061;28;20532;-58
2022/09/12 08:23:33;;;;;;;55.47;34.80;;;16.70;99.90;;;;;;5026171;28;20049;-59
2022/09/12 08:26:02;;;;;;;53.72;33.42;;;16.80;99.90;;;;;;5041717;28;20306;-59
2022/09/12 08:28:29;;;;;;;54.80;34.35;;;16.90;99.90;;;;;;5043818;28;20073;-58
2022/09/12 08:31:03;;;;;;;54.10;33.53;;;16.90;99.90;;;;;;5043608;28;20383;-60
2022/09/12 08:33:32;;;;;;;55.65;33.67;;;17.00;99.90;;;;;;5042549;28;20098;-59
2022/09/12 08:36:19;;;;;;;57.65;34.38;;;17.10;99.90;;;;;;5042099;28;20045;-59
2022/09/12 08:38:46;;;;;;;56.15;34.03;;;17.10;99.90;;;;;;5043313;28;21076;-59
2022/09/12 08:41:29;;;;;;;56.00;33.38;;;17.20;99.90;;;;;;5045325;28;20044;-59
2022/09/12 08:44:16;;;;;;;53.50;32.65;;;17.30;99.90;;;;;;5043644;28;20467;-60
2022/09/12 08:47:09;;;;;;;54.55;32.97;;;17.40;99.90;;;;;;5042612;28;20128;-58
2022/09/12 08:50:14;;;;;;;52.95;32.58;;;17.50;99.90;;;;;;5041223;28;20067;-58
2022/09/12 08:52:58;;;;;;;55.30;32.80;;;17.60;99.90;;;;;;5035316;28;20578;-59
2022/09/12 08:55:39;;;;;;;55.50;33.47;;;17.60;99.90;;;;;;5042916;28;20380;-58
2022/09/12 08:58:21;;;;;;;52.00;32.70;;;17.60;99.90;;;;;;5041749;28;20049;-57
2022/09/12 09:00:58;;;;;;;49.97;31.08;;;17.70;99.90;;;;;;5042413;28;20108;-59
2022/09/12 09:03:47;;;;;;;49.60;32.17;;;17.70;99.90;;;;;;5031880;28;20083;-59
2022/09/12 09:06:41;;;;;;;49.72;32.70;;;17.80;99.90;;;;;;5031505;28;20132;-58
2022/09/12 09:09:54;;;;;;;49.10;31.90;;;17.90;99.90;;;;;;5042484;28;20048;-59
2022/09/12 09:12:32;;;;;;;49.80;31.45;;;18.00;99.90;;;;;;5038832;28;20064;-58
2022/09/12 09:15:13;;;;;;;48.83;32.70;;;18.10;99.90;;;;;;5042541;28;20051;-59
2022/09/12 09:17:46;;;;;;;51.42;32.03;;;18.10;99.90;;;;;;5036743;28;20041;-59
2022/09/12 09:20:31;;;;;;;53.55;32.95;;;18.20;99.90;;;;;;5043818;28;20044;-59
2022/09/12 09:23:06;;;;;;;53.25;31.23;;;18.40;99.90;;;;;;5041685;28;20083;-59
2022/09/12 09:25:55;;;;;;;51.33;31.60;;;18.50;99.90;;;;;;5042360;28;20375;-58
2022/09/12 09:28:48;;;;;;;50.10;31.38;;;18.50;99.90;;;;;;5041303;28;20116;-59
2022/09/12 09:31:19;;;;;;;49.72;31.83;;;18.60;99.90;;;;;;5040292;28;20083;-59
2022/09/12 09:33:48;;;;;;;53.08;31.17;;;18.80;99.90;;;;;;5039632;28;20053;-59
2022/09/12 09:36:17;;;;;;;47.08;30.48;;;18.80;99.90;;;;;;5041103;28;20051;-60
2022/09/12 09:38:53;;;;;;;51.33;31.08;;;18.90;99.90;;;;;;5040892;28;20508;-59
2022/09/12 09:41:24;;;;;;;47.03;29.80;;;19.10;99.90;;;;;;5043895;28;20386;-59
2022/09/12 09:43:50;;;;;;;44.65;29.98;;;19.20;99.90;;;;;;5041040;28;20120;-59
2022/09/12 09:46:17;;;;;;;44.22;29.00;;;19.30;99.90;;;;;;5040062;28;20120;-59
2022/09/12 09:48:47;;;;;;;41.80;28.10;;;19.60;99.90;;;;;;5007223;28;20064;-59
2022/09/12 09:51:16;;;;;;;44.05;28.15;;;19.70;99.90;;;;;;5041598;28;20368;-59
2022/09/12 09:54:07;;;;;;;47.97;29.27;;;19.90;99.90;;;;;;5041234;28;20062;-59
2022/09/12 09:56:36;;;;;;;46.85;27.55;;;20.10;99.90;;;;;;5042820;28;20146;-59
2022/09/12 09:59:32;;;;;;;42.97;28.10;;;20.20;99.90;;;;;;5042356;28;20048;-59
2022/09/12 10:02:02;;;;;;;41.17;27.70;;;20.40;99.90;;;;;;5028000;28;20546;-59
2022/09/12 10:04:35;;;;;;;38.33;26.60;;;20.50;99.90;;;;;;5041960;28;20048;-60
2022/09/12 10:07:02;;;;;;;46.53;27.50;;;20.60;99.90;;;;;;5028699;28;20734;-58
2022/09/12 10:09:33;;;;;;;44.40;26.88;;;20.80;99.90;;;;;;5035622;28;20125;-59
2022/09/12 10:12:19;;;;;;;40.08;27.05;;;21.00;99.90;;;;;;5040118;28;20057;-59
2022/09/12 10:15:16;;;;;;;39.45;26.42;;;21.20;99.90;;;;;;5041327;28;20147;-58
2022/09/12 10:17:47;;;;;;;39.45;26.35;;;21.40;99.90;;;;;;5039946;28;20045;-59
2022/09/12 10:20:41;;;;;;;41.78;27.15;;;21.40;99.90;;;;;;5042884;28;20041;-59
2022/09/12 10:23:36;;;;;;;40.92;27.02;;;21.50;99.90;;;;;;5041824;28;20052;-59
2022/09/12 10:26:07;;;;;;;42.70;27.25;;;21.60;99.90;;;;;;5042172;28;20128;-59
2022/09/12 10:28:38;;;;;;;34.78;23.40;;;21.70;99.90;;;;;;5040214;28;20083;-59
2022/09/12 10:31:07;;;;;;;34.85;22.13;;;21.80;99.90;;;;;;5038913;28;20048;-60
2022/09/12 10:33:41;;;;;;;33.45;20.77;;;21.80;99.80;;;;;;5041827;28;20044;-59
2022/09/12 10:36:07;;;;;;;26.20;17.38;;;21.90;99.00;;;;;;5040760;28;20046;-59
2022/09/12 10:38:33;;;;;;;34.92;22.77;;;21.90;98.70;;;;;;5041686;28;20088;-58
2022/09/12 10:41:09;;;;;;;34.60;21.50;;;21.90;98.40;;;;;;5042009;28;20044;-57
2022/09/12 10:43:37;;;;;;;33.13;19.33;;;22.00;98.50;;;;;;5038473;28;20045;-58
2022/09/12 10:46:18;;;;;;;24.60;17.23;;;22.00;98.30;;;;;;5038934;28;20049;-59
2022/09/12 10:49:10;;;;;;;27.63;17.75;;;22.20;98.10;;;;;;5039470;28;20053;-59
2022/09/12 10:51:36;;;;;;;23.95;16.48;;;22.40;97.80;;;;;;5040351;28;20052;-58
2022/09/12 10:54:05;;;;;;;27.73;17.25;;;22.50;97.40;;;;;;5040877;28;20672;-59
2022/09/12 10:56:52;;;;;;;28.15;17.73;;;22.70;97.30;;;;;;5042852;28;20095;-60
2022/09/12 10:59:54;;;;;;;27.40;17.67;;;22.90;97.10;;;;;;5041173;28;20037;-60
2022/09/12 11:02:28;;;;;;;25.98;17.08;;;23.10;96.90;;;;;;5038857;28;20059;-60
2022/09/12 11:05:18;;;;;;;24.60;15.05;;;23.20;96.50;;;;;;5038668;28;20048;-59
2022/09/12 11:07:54;;;;;;;23.85;14.55;;;23.30;95.80;;;;;;5039844;28;20505;-59
2022/09/12 11:11:02;;;;;;;21.65;14.15;;;23.40;95.00;;;;;;5039022;28;20084;-59
2022/09/12 11:13:40;;;;;;;25.08;15.57;;;23.50;95.10;;;;;;5040180;28;20052;-59
2022/09/12 11:16:12;;;;;;;24.30;15.10;;;23.70;94.70;;;;;;5039766;28;20874;-59
2022/09/12 11:18:43;;;;;;;25.10;15.43;;;23.80;94.50;;;;;;5041005;28;20045;-59
2022/09/12 11:21:36;;;;;;;27.45;16.55;;;23.90;94.20;;;;;;5041319;28;21813;-59
2022/09/12 11:24:20;;;;;;;30.60;19.08;;;24.00;93.80;;;;;;5039667;28;20123;-59
2022/09/12 11:26:51;;;;;;;28.60;16.80;;;24.10;93.50;;;;;;5040134;28;20073;-58
2022/09/12 11:29:46;;;;;;;33.80;16.33;;;24.10;92.70;;;;;;5041914;28;20048;-59
2022/09/12 11:32:22;;;;;;;23.35;15.48;;;24.10;93.20;;;;;;5040244;28;20479;-60
2022/09/12 11:34:57;;;;;;;22.48;14.25;;;24.30;93.00;;;;;;5060193;28;20049;-60
2022/09/12 11:37:34;;;;;;;24.13;13.73;;;24.50;92.90;;;;;;5043439;28;20049;-58
2022/09/12 11:40:29;;;;;;;15.18;10.00;;;24.70;92.30;;;;;;5043506;28;20091;-60
2022/09/12 11:43:22;;;;;;;14.65;10.32;;;24.80;91.60;;;;;;5042372;28;20540;-60
2022/09/12 11:45:49;;;;;;;15.55;10.05;;;24.90;90.90;;;;;;5033125;28;20107;-59
2022/09/12 11:48:47;;;;;;;16.67;11.07;;;25.00;90.30;;;;;;5042365;28;20102;-59
2022/09/12 11:51:27;;;;;;;15.68;10.60;;;25.10;90.30;;;;;;5039977;28;20045;-59
2022/09/12 11:54:12;;;;;;;11.90;8.35;;;25.10;89.00;;;;;;5043411;28;20080;-59
2022/09/12 11:56:44;;;;;;;14.35;8.82;;;25.00;87.30;;;;;;5046809;28;20550;-60
2022/09/12 11:59:50;;;;;;;14.73;8.48;;;24.80;86.40;;;;;;5030618;28;20052;-59
2022/09/12 12:02:27;;;;;;;15.63;9.32;;;24.70;86.80;;;;;;5035225;28;20127;-59
2022/09/12 12:05:24;;;;;;;14.90;9.65;;;24.70;86.50;;;;;;5026821;28;20041;-60
2022/09/12 12:07:56;;;;;;;15.32;9.85;;;24.70;86.20;;;;;;5042031;28;20040;-59
2022/09/12 12:10:41;;;;;;;13.07;9.57;;;24.60;85.40;;;;;;5043726;28;20059;-59
2022/09/12 12:13:31;;;;;;;13.73;8.98;;;24.50;86.40;;;;;;5042244;28;20045;-58
2022/09/12 12:16:13;;;;;;;14.38;8.93;;;24.50;86.30;;;;;;5037114;28;20044;-59
2022/09/12 12:18:41;;;;;;;11.60;7.70;;;24.60;86.20;;;;;;5041750;28;20037;-59
2022/09/12 12:21:25;;;;;;;16.65;9.48;;;24.70;85.20;;;;;;5042802;28;20049;-58
2022/09/12 12:24:09;;;;;;;15.15;8.30;;;24.90;85.40;;;;;;5040226;28;20045;-59
2022/09/12 12:26:37;;;;;;;9.85;7.80;;;25.10;86.10;;;;;;5037381;28;20052;-59
2022/09/12 12:29:07;;;;;;;12.85;8.85;;;25.30;83.40;;;;;;5043328;28;20048;-59
2022/09/12 12:31:58;;;;;;;15.15;7.25;;;25.40;81.60;;;;;;5043667;28;21003;-60
2022/09/12 12:34:42;;;;;;;9.68;6.22;;;25.40;82.30;;;;;;5040810;28;20348;-59
2022/09/12 12:37:20;;;;;;;9.00;5.93;;;25.40;81.40;;;;;;5039726;28;20047;-60
2022/09/12 12:39:49;;;;;;;8.90;5.93;;;25.50;80.90;;;;;;5038464;28;20446;-54
2022/09/12 12:42:33;;;;;;;9.48;6.57;;;25.50;80.40;;;;;;5043966;28;20545;-53
2022/09/12 12:45:23;;;;;;;7.63;5.35;;;25.70;81.40;;;;;;5039719;28;20095;-55
2022/09/12 12:47:53;;;;;;;5.60;4.85;;;25.70;78.90;;;;;;5044510;28;20049;-56
2022/09/12 12:50:19;;;;;;;8.18;4.95;;;25.60;78.40;;;;;;5043187;28;20057;-54
2022/09/12 12:52:51;;;;;;;6.30;4.85;;;25.60;77.70;;;;;;5042835;28;20052;-55
2022/09/12 12:55:32;;;;;;;13.27;6.75;;;25.60;77.80;;;;;;5040131;28;20799;-55
2022/09/12 12:58:00;;;;;;;10.00;6.72;;;25.70;77.60;;;;;;5040187;28;20037;-55
2022/09/12 13:00:33;;;;;;;10.48;5.93;;;25.90;77.40;;;;;;5042901;28;20083;-56
2022/09/12 13:03:05;;;;;;;7.85;5.18;;;26.20;77.20;;;;;;5040497;28;20059;-56
2022/09/12 13:05:48;;;;;;;8.25;5.20;;;26.20;75.30;;;;;;5041114;28;20049;-54